createdAt,value
2023-12-26T00:00:24.642Z,40.300000
2023-12-26T00:05:18.465Z,40.500000
2023-12-26T00:10:18.382Z,40.600000
2023-12-26T00:15:55.584Z,40.500000
2023-12-26T00:20:24.531Z,40.200000
2023-12-26T00:25:24.657Z,40.400000
2023-12-26T00:30:24.875Z,40.400000
2023-12-26T00:35:18.398Z,40.400000
2023-12-26T00:40:16.475Z,40.200000
2023-12-26T00:45:24.692Z,40.200000
2023-12-26T00:50:24.756Z,40.100000
2023-12-26T00:55:18.438Z,40.100000
2023-12-26T01:00:24.606Z,40.100000
2023-12-26T01:05:24.683Z,40.200000
2023-12-26T01:10:24.573Z,40.200000
2023-12-26T01:15:24.889Z,40.300000
2023-12-26T01:20:18.381Z,40.200000
2023-12-26T01:25:18.436Z,40.200000
2023-12-26T01:30:16.808Z,40.100000
2023-12-26T01:35:16.739Z,40.100000
2023-12-26T01:40:24.822Z,40.100000
2023-12-26T01:45:18.605Z,40.200000
2023-12-26T01:50:18.523Z,40.400000
2023-12-26T01:55:18.727Z,40.400000
2023-12-26T02:00:18.684Z,40.400000
2023-12-26T02:05:24.796Z,40.000000
2023-12-26T02:10:24.835Z,40.200000
2023-12-26T02:15:18.711Z,40.500000
2023-12-26T02:20:21.016Z,40.300000
2023-12-26T02:25:17.056Z,40.400000
2023-12-26T02:30:16.673Z,40.600000
2023-12-26T02:35:24.861Z,40.600000
2023-12-26T02:40:18.641Z,40.500000
2023-12-26T02:45:20.677Z,40.700000
2023-12-26T02:50:18.870Z,40.600000
2023-12-26T02:55:24.756Z,40.500000
2023-12-26T03:00:24.806Z,40.500000
2023-12-26T03:05:25.202Z,40.500000
2023-12-26T03:10:18.761Z,40.600000
2023-12-26T03:15:19.025Z,40.700000
2023-12-26T03:20:16.777Z,40.700000
2023-12-26T03:25:18.685Z,40.700000
2023-12-26T03:30:25.241Z,40.800000
2023-12-26T03:35:24.993Z,40.800000
2023-12-26T03:40:24.901Z,40.700000
2023-12-26T03:45:18.847Z,40.700000
2023-12-26T03:50:18.674Z,40.700000
2023-12-26T03:55:19.006Z,40.700000
2023-12-26T04:00:25.047Z,40.700000
2023-12-26T04:05:25.046Z,40.700000
2023-12-26T04:10:16.929Z,40.800000
2023-12-26T04:15:16.918Z,40.700000
2023-12-26T04:20:25.174Z,40.700000
2023-12-26T04:25:18.888Z,40.800000
2023-12-26T04:30:25.242Z,40.800000
2023-12-26T04:35:25.189Z,40.900000
2023-12-26T04:40:18.860Z,40.800000
2023-12-26T04:45:19.133Z,40.800000
2023-12-26T04:50:19.628Z,40.700000
2023-12-26T04:55:25.017Z,40.600000
2023-12-26T05:00:24.352Z,40.400000
2023-12-26T05:05:24.476Z,40.400000
2023-12-26T05:10:24.507Z,40.400000
2023-12-26T05:15:18.222Z,40.400000
2023-12-26T05:20:26.361Z,40.400000
2023-12-26T05:25:18.182Z,40.300000
2023-12-26T05:30:24.562Z,40.200000
2023-12-26T05:35:18.271Z,40.200000
2023-12-26T05:40:24.497Z,40.200000
2023-12-26T05:45:18.354Z,40.200000
2023-12-26T05:50:18.345Z,40.100000
2023-12-26T05:55:18.150Z,40.100000
2023-12-26T06:00:18.268Z,40.000000
2023-12-26T06:05:24.641Z,40.000000
2023-12-26T06:10:16.381Z,39.900000
2023-12-26T06:15:16.244Z,39.800000
2023-12-26T06:20:24.553Z,39.800000
2023-12-26T06:25:18.229Z,39.700000
2023-12-26T06:30:24.621Z,39.500000
2023-12-26T06:35:18.247Z,39.500000
2023-12-26T06:40:18.313Z,39.400000
2023-12-26T06:45:24.633Z,39.300000
2023-12-26T06:50:24.449Z,39.300000
2023-12-26T06:55:24.535Z,39.200000
2023-12-26T07:00:18.347Z,39.200000
2023-12-26T07:05:16.467Z,39.200000
2023-12-26T07:10:16.522Z,39.100000
2023-12-26T07:15:24.720Z,39.100000
2023-12-26T07:20:24.518Z,38.900000
2023-12-26T07:25:18.318Z,38.800000
2023-12-26T07:30:24.569Z,38.700000
2023-12-26T07:35:24.588Z,38.600000
2023-12-26T07:40:18.520Z,38.500000
2023-12-26T07:45:18.379Z,38.300000
2023-12-26T07:50:24.845Z,38.100000
2023-12-26T07:55:24.546Z,38.100000
2023-12-26T08:00:16.642Z,38.200000
2023-12-26T08:05:24.756Z,38.000000
2023-12-26T08:10:18.372Z,38.000000
2023-12-26T08:15:24.656Z,37.900000
2023-12-26T08:20:24.748Z,37.700000
2023-12-26T08:25:24.638Z,37.600000
2023-12-26T08:30:18.565Z,37.500000
2023-12-26T08:35:24.779Z,37.300000
2023-12-26T08:40:18.504Z,37.100000
2023-12-26T08:45:18.576Z,37.000000
2023-12-26T08:50:16.516Z,36.900000
2023-12-26T08:55:16.646Z,36.900000
2023-12-26T09:00:24.917Z,36.700000
2023-12-26T09:05:18.570Z,36.700000
2023-12-26T09:10:24.710Z,36.700000
2023-12-26T09:15:24.932Z,36.600000
2023-12-26T09:20:24.821Z,36.500000
2023-12-26T09:25:24.726Z,36.500000
2023-12-26T09:30:18.719Z,36.500000
2023-12-26T09:35:24.833Z,36.400000
2023-12-26T09:40:24.881Z,36.300000
2023-12-26T09:45:16.967Z,36.300000
2023-12-26T09:50:16.853Z,36.200000
2023-12-26T09:55:18.621Z,36.100000
2023-12-26T10:00:27.118Z,35.900000
2023-12-26T10:05:18.609Z,35.900000
2023-12-26T10:10:18.698Z,35.800000
2023-12-26T10:15:24.978Z,35.800000
2023-12-26T10:20:25.031Z,35.800000
2023-12-26T10:25:18.723Z,35.800000
2023-12-26T10:30:25.093Z,35.700000
2023-12-26T10:35:18.707Z,35.600000
2023-12-26T10:40:16.830Z,35.600000
2023-12-26T10:45:25.166Z,35.600000
2023-12-26T10:50:18.829Z,35.500000
2023-12-26T10:55:24.919Z,35.300000
2023-12-26T11:00:18.985Z,35.000000
2023-12-26T11:05:25.126Z,34.900000
2023-12-26T11:10:25.041Z,35.000000
2023-12-26T11:15:18.822Z,35.000000
2023-12-26T11:20:25.168Z,35.000000
2023-12-26T11:25:25.057Z,35.000000
2023-12-26T11:30:17.025Z,35.000000
2023-12-26T11:35:16.826Z,35.000000
2023-12-26T11:40:18.921Z,35.000000
2023-12-26T11:45:25.179Z,35.100000
2023-12-26T11:50:18.948Z,35.000000
2023-12-26T11:55:25.034Z,35.100000
2023-12-26T12:00:25.288Z,35.200000
2023-12-26T12:05:25.150Z,35.200000
2023-12-26T12:10:25.165Z,35.100000
2023-12-26T12:15:19.135Z,35.100000
2023-12-26T12:20:19.069Z,35.100000
2023-12-26T12:25:17.068Z,35.000000
2023-12-26T12:30:17.042Z,35.100000
2023-12-26T12:35:19.008Z,35.000000
2023-12-26T12:40:25.157Z,35.000000
2023-12-26T12:45:25.433Z,35.000000
2023-12-26T12:50:18.994Z,35.000000
2023-12-26T12:55:28.075Z,35.100000
2023-12-26T13:00:25.261Z,35.100000
2023-12-26T13:05:19.071Z,35.200000
2023-12-26T13:10:25.298Z,35.300000
2023-12-26T13:15:25.283Z,35.300000
2023-12-26T13:20:17.154Z,35.400000
2023-12-26T13:25:25.369Z,35.500000
2023-12-26T13:30:25.328Z,35.700000
2023-12-26T13:35:25.373Z,35.700000
2023-12-26T13:40:19.086Z,35.900000
2023-12-26T13:45:25.361Z,36.100000
2023-12-26T13:50:25.450Z,36.300000
2023-12-26T13:55:25.357Z,36.400000
2023-12-26T14:00:25.410Z,36.600000
2023-12-26T14:05:19.228Z,36.600000
2023-12-26T14:10:19.173Z,36.700000
2023-12-26T14:15:17.157Z,36.800000
2023-12-26T14:20:25.489Z,36.600000
2023-12-26T14:25:19.336Z,36.700000
2023-12-26T14:30:25.552Z,36.500000
2023-12-26T14:35:25.546Z,36.600000
2023-12-26T14:40:19.360Z,36.800000
2023-12-26T14:45:25.544Z,37.100000
2023-12-26T14:50:25.474Z,36.900000
2023-12-26T14:55:19.286Z,36.900000
2023-12-26T15:00:19.209Z,36.900000
2023-12-26T15:05:17.384Z,37.200000
2023-12-26T15:10:17.461Z,37.400000
2023-12-26T15:15:25.669Z,37.900000
2023-12-26T15:20:19.316Z,38.100000
2023-12-26T15:25:25.598Z,38.400000
2023-12-26T15:30:25.752Z,38.700000
2023-12-26T15:35:19.327Z,38.800000
2023-12-26T15:40:25.722Z,39.200000
2023-12-26T15:45:25.695Z,39.300000
2023-12-26T15:50:25.600Z,39.800000
2023-12-26T15:55:25.583Z,40.200000
2023-12-26T16:00:17.579Z,40.200000
2023-12-26T16:05:25.684Z,40.200000
2023-12-26T16:10:25.739Z,40.300000
2023-12-26T16:15:25.583Z,40.500000
2023-12-26T16:20:25.736Z,40.800000
2023-12-26T16:25:19.361Z,40.900000
2023-12-26T16:30:25.772Z,41.500000
2023-12-26T16:35:25.652Z,42.000000
2023-12-26T16:40:19.304Z,42.300000
2023-12-26T16:45:23.706Z,42.800000
2023-12-26T16:50:17.572Z,43.000000
2023-12-26T16:55:17.599Z,43.100000
2023-12-26T17:00:19.618Z,43.400000
2023-12-26T17:05:19.551Z,43.500000
2023-12-26T17:10:23.789Z,43.700000
2023-12-26T17:15:23.767Z,43.900000
2023-12-26T17:20:23.742Z,44.200000
2023-12-26T17:25:23.665Z,44.400000
2023-12-26T17:30:15.694Z,44.700000
2023-12-26T17:35:15.589Z,44.800000
2023-12-26T17:40:23.832Z,44.900000
2023-12-26T17:45:17.783Z,45.100000
2023-12-26T17:50:54.943Z,45.200000
2023-12-26T17:55:17.670Z,45.200000
2023-12-26T18:00:17.711Z,45.400000
2023-12-26T18:05:16.470Z,45.400000
2023-12-26T18:10:23.908Z,45.800000
2023-12-26T18:15:17.661Z,46.200000
2023-12-26T18:20:23.825Z,46.600000
2023-12-26T18:25:15.648Z,46.900000
2023-12-26T18:30:23.968Z,47.200000
2023-12-26T18:35:24.134Z,47.600000
2023-12-26T18:40:23.912Z,47.900000
2023-12-26T18:45:17.689Z,48.300000
2023-12-26T18:50:17.609Z,48.800000
2023-12-26T18:55:23.939Z,49.200000
2023-12-26T19:00:17.812Z,49.200000
2023-12-26T19:05:23.999Z,49.400000
2023-12-26T19:10:23.899Z,49.600000
2023-12-26T19:15:15.971Z,49.700000
2023-12-26T19:20:15.790Z,49.900000
2023-12-26T19:25:17.737Z,49.900000
2023-12-26T19:30:17.860Z,49.900000
2023-12-26T19:35:24.107Z,49.800000
2023-12-26T19:40:23.988Z,49.800000
2023-12-26T19:45:17.928Z,49.700000
2023-12-26T19:50:24.020Z,49.600000
2023-12-26T19:55:17.768Z,49.500000
2023-12-26T20:00:17.808Z,49.400000
2023-12-26T20:05:24.127Z,49.300000
2023-12-26T20:10:16.000Z,49.300000
2023-12-26T20:15:15.829Z,49.200000
2023-12-26T20:20:17.961Z,49.100000
2023-12-26T20:25:24.114Z,49.000000
2023-12-26T20:30:24.254Z,48.900000
2023-12-26T20:35:24.065Z,48.800000
2023-12-26T20:40:24.077Z,48.600000
2023-12-26T20:45:24.186Z,48.500000
2023-12-26T20:50:17.896Z,48.100000
2023-12-26T20:55:17.929Z,47.700000
2023-12-26T21:00:17.915Z,47.500000
2023-12-26T21:05:16.061Z,47.300000
2023-12-26T21:10:24.105Z,46.900000
2023-12-26T21:15:24.279Z,46.800000
2023-12-26T21:20:24.120Z,46.700000
2023-12-26T21:25:24.085Z,46.600000
2023-12-26T21:30:18.116Z,46.300000
2023-12-26T21:35:17.999Z,46.100000
2023-12-26T21:40:24.245Z,45.900000
2023-12-26T21:45:24.201Z,45.800000
2023-12-26T21:50:18.113Z,45.400000
2023-12-26T21:55:16.000Z,45.100000
2023-12-26T22:00:16.150Z,44.800000
2023-12-26T22:05:17.987Z,44.500000
2023-12-26T22:10:24.273Z,44.300000
2023-12-26T22:15:24.746Z,44.100000
2023-12-26T22:20:18.009Z,44.000000
2023-12-26T22:25:18.102Z,43.600000
2023-12-26T22:30:24.442Z,43.400000
2023-12-26T22:35:18.301Z,43.100000
2023-12-26T22:40:18.184Z,43.100000
2023-12-26T22:45:18.152Z,42.900000
2023-12-26T22:50:16.263Z,42.400000
2023-12-26T22:55:16.176Z,42.000000
2023-12-26T23:00:18.254Z,41.900000
2023-12-26T23:05:20.894Z,41.600000
2023-12-26T23:10:24.406Z,41.400000
2023-12-26T23:15:24.379Z,41.400000
2023-12-26T23:20:24.368Z,41.400000
2023-12-26T23:25:24.419Z,41.200000
2023-12-26T23:30:24.461Z,41.000000
2023-12-26T23:35:24.432Z,40.700000
2023-12-26T23:40:16.258Z,40.600000
2023-12-26T23:45:16.483Z,40.500000
2023-12-26T23:50:24.575Z,40.400000
2023-12-26T23:55:18.273Z,40.200000
